createdAt,value
2019-02-06T00:00:28.915Z,0
2019-02-06T00:01:28.899Z,0
2019-02-06T00:02:28.892Z,0
2019-02-06T00:03:28.958Z,0
2019-02-06T00:04:28.907Z,0
2019-02-06T00:05:28.893Z,0
2019-02-06T00:06:28.957Z,0
2019-02-06T00:07:28.927Z,0
2019-02-06T00:08:28.911Z,0
2019-02-06T00:09:28.904Z,0
2019-02-06T00:10:28.981Z,0
2019-02-06T00:11:28.927Z,0
2019-02-06T00:12:28.857Z,0
2019-02-06T00:13:28.928Z,0
2019-02-06T00:14:28.878Z,0
2019-02-06T00:15:28.980Z,0
2019-02-06T00:16:28.992Z,0
2019-02-06T00:17:28.940Z,0
2019-02-06T00:18:29.034Z,0
2019-02-06T00:19:28.854Z,0
2019-02-06T00:20:28.887Z,0
2019-02-06T00:21:29.229Z,0
2019-02-06T00:22:28.912Z,0
2019-02-06T00:23:38.861Z,0
2019-02-06T00:24:28.844Z,0
2019-02-06T00:25:28.885Z,0
2019-02-06T00:26:28.911Z,0
2019-02-06T00:27:29.064Z,0
2019-02-06T00:28:28.870Z,0
2019-02-06T00:29:29.202Z,0
2019-02-06T00:30:28.854Z,0
2019-02-06T00:31:28.882Z,0
2019-02-06T00:32:29.131Z,0
2019-02-06T00:33:28.890Z,0
2019-02-06T00:34:28.890Z,0
2019-02-06T00:35:28.923Z,0
2019-02-06T00:36:28.960Z,0
2019-02-06T00:37:29.283Z,0
2019-02-06T00:38:28.988Z,0
2019-02-06T00:39:28.922Z,0
2019-02-06T00:40:28.874Z,0
2019-02-06T00:41:28.866Z,0
2019-02-06T00:42:28.848Z,0
2019-02-06T00:43:28.920Z,0
2019-02-06T00:44:29.049Z,0
2019-02-06T00:45:29.014Z,0
2019-02-06T00:46:28.871Z,0
2019-02-06T00:47:28.903Z,0
2019-02-06T00:48:28.959Z,0
2019-02-06T00:49:28.882Z,0
2019-02-06T00:50:28.884Z,0
2019-02-06T00:51:28.924Z,0
2019-02-06T00:52:29.264Z,0
2019-02-06T00:53:28.894Z,3.9
2019-02-06T00:54:32.669Z,3.9
2019-02-06T00:55:32.747Z,3.9
2019-02-06T00:56:32.564Z,3.9
2019-02-06T00:57:32.385Z,1.8
2019-02-06T00:58:32.368Z,0
2019-02-06T00:59:28.944Z,0
2019-02-06T01:00:29.352Z,0
2019-02-06T01:01:28.884Z,0
2019-02-06T01:02:28.863Z,0
2019-02-06T01:03:28.947Z,0
2019-02-06T01:04:28.878Z,0
2019-02-06T01:05:39.710Z,0
2019-02-06T01:06:28.886Z,0
2019-02-06T01:07:29.133Z,0
2019-02-06T01:08:28.912Z,0
2019-02-06T01:09:28.877Z,0
2019-02-06T01:10:28.880Z,0
2019-02-06T01:11:28.968Z,0
2019-02-06T01:12:28.887Z,0
2019-02-06T01:13:28.850Z,0
2019-02-06T01:14:28.888Z,0
2019-02-06T01:15:29.236Z,0
2019-02-06T01:16:28.931Z,0
2019-02-06T01:17:28.873Z,0
2019-02-06T01:18:28.878Z,0
2019-02-06T01:19:28.852Z,0
2019-02-06T01:20:28.940Z,0
2019-02-06T01:21:28.878Z,0
2019-02-06T01:22:29.087Z,0
2019-02-06T01:23:28.951Z,6.6
2019-02-06T01:24:28.844Z,6.6
2019-02-06T01:25:28.892Z,6.6
2019-02-06T01:26:28.928Z,1.8
2019-02-06T01:27:28.882Z,1.8
2019-02-06T01:28:28.939Z,1.8
2019-02-06T01:29:28.853Z,3.9
2019-02-06T01:30:29.221Z,3.9
2019-02-06T01:31:28.869Z,0
2019-02-06T01:32:28.942Z,1.8
2019-02-06T01:33:28.870Z,1.8
2019-02-06T01:34:28.867Z,0
2019-02-06T01:35:28.838Z,1.8
2019-02-06T01:36:28.869Z,6.6
2019-02-06T01:37:29.013Z,3.9
2019-02-06T01:38:28.933Z,6.6
2019-02-06T01:39:28.859Z,9.5
2019-02-06T01:40:28.846Z,12.4
2019-02-06T01:41:28.832Z,15.4
2019-02-06T01:42:28.931Z,9.5
2019-02-06T01:43:28.865Z,15.4
2019-02-06T01:44:28.871Z,12.4
2019-02-06T01:45:29.302Z,12.4
2019-02-06T01:46:28.847Z,12.4
2019-02-06T01:47:28.932Z,12.4
2019-02-06T01:48:28.871Z,12.4
2019-02-06T01:49:28.860Z,15.4
2019-02-06T01:50:28.854Z,15.4
2019-02-06T01:51:28.837Z,21.3
2019-02-06T01:52:28.894Z,21.3
2019-02-06T01:53:28.859Z,24.3
2019-02-06T01:54:28.868Z,21.3
2019-02-06T01:55:28.875Z,18.3
2019-02-06T01:56:28.859Z,21.3
2019-02-06T01:57:28.839Z,18.3
2019-02-06T01:58:28.874Z,18.3
2019-02-06T01:59:28.855Z,18.3
2019-02-06T02:00:29.190Z,18.3
2019-02-06T02:01:28.918Z,15.4
2019-02-06T02:02:28.825Z,18.3
2019-02-06T02:03:28.893Z,15.4
2019-02-06T02:04:28.865Z,15.4
2019-02-06T02:05:28.948Z,21.3
2019-02-06T02:06:28.858Z,18.3
2019-02-06T02:07:28.852Z,15.4
2019-02-06T02:08:28.839Z,15.4
2019-02-06T02:09:28.864Z,18.3
2019-02-06T02:10:28.929Z,21.3
2019-02-06T02:11:28.848Z,15.4
2019-02-06T02:12:28.851Z,12.4
2019-02-06T02:13:28.819Z,15.4
2019-02-06T02:14:28.971Z,15.4
2019-02-06T02:15:29.169Z,15.4
2019-02-06T02:16:28.847Z,12.4
2019-02-06T02:17:28.857Z,18.3
2019-02-06T02:18:28.884Z,18.3
2019-02-06T02:19:28.831Z,18.3
2019-02-06T02:20:28.848Z,18.3
2019-02-06T02:21:28.843Z,18.3
2019-02-06T02:22:28.846Z,18.3
2019-02-06T02:23:29.448Z,15.4
2019-02-06T02:24:28.809Z,15.4
2019-02-06T02:25:28.845Z,18.3
2019-02-06T02:26:28.848Z,15.4
2019-02-06T02:27:28.842Z,15.4
2019-02-06T02:28:29.112Z,18.3
2019-02-06T02:29:28.808Z,15.4
2019-02-06T02:30:28.924Z,15.4
2019-02-06T02:31:32.289Z,18.3
2019-02-06T02:32:28.850Z,12.4
2019-02-06T02:33:28.843Z,15.4
2019-02-06T02:34:28.923Z,18.3
2019-02-06T02:35:28.817Z,18.3
2019-02-06T02:36:28.852Z,12.4
2019-02-06T02:37:28.909Z,12.4
2019-02-06T02:38:28.850Z,18.3
2019-02-06T02:39:29.004Z,18.3
2019-02-06T02:40:28.835Z,18.3
2019-02-06T02:41:28.809Z,21.3
2019-02-06T02:42:29.023Z,12.4
2019-02-06T02:43:28.849Z,15.4
2019-02-06T02:44:28.884Z,12.4
2019-02-06T02:45:28.902Z,12.4
2019-02-06T02:46:29.195Z,9.5
2019-02-06T02:47:28.838Z,1.8
2019-02-06T02:48:28.839Z,12.4
2019-02-06T02:49:28.899Z,12.4
2019-02-06T02:50:28.827Z,15.4
2019-02-06T02:51:28.808Z,12.4
2019-02-06T02:52:28.871Z,6.6
2019-02-06T02:53:28.838Z,6.6
2019-02-06T02:54:29.210Z,6.6
2019-02-06T02:55:28.843Z,12.4
2019-02-06T02:56:28.920Z,12.4
2019-02-06T02:57:28.874Z,15.4
2019-02-06T02:58:28.854Z,15.4
2019-02-06T02:59:28.837Z,15.4
2019-02-06T03:00:28.842Z,18.3
2019-02-06T03:01:28.956Z,18.3
2019-02-06T03:02:28.804Z,15.4
2019-02-06T03:03:28.829Z,12.4
2019-02-06T03:04:28.838Z,6.6
2019-02-06T03:05:28.891Z,9.5
2019-02-06T03:06:29.972Z,9.5
2019-02-06T03:07:28.916Z,9.5
2019-02-06T03:08:28.863Z,9.5
2019-02-06T03:09:29.175Z,9.5
2019-02-06T03:10:28.834Z,9.5
2019-02-06T03:11:28.847Z,9.5
2019-02-06T03:12:31.928Z,6.6
2019-02-06T03:13:28.852Z,3.9
2019-02-06T03:14:29.524Z,3.9
2019-02-06T03:15:28.816Z,3.9
2019-02-06T03:16:28.836Z,1.8
2019-02-06T03:17:29.254Z,0
2019-02-06T03:18:28.856Z,0
2019-02-06T03:19:28.809Z,0
2019-02-06T03:20:28.824Z,0
2019-02-06T03:21:28.868Z,1.8
2019-02-06T03:22:28.826Z,1.8
2019-02-06T03:23:28.930Z,0
2019-02-06T03:24:29.043Z,1.8
2019-02-06T03:25:28.829Z,0
2019-02-06T03:26:28.819Z,0
2019-02-06T03:27:28.834Z,0
2019-02-06T03:28:28.825Z,0
2019-02-06T03:29:28.870Z,3.9
2019-02-06T03:30:28.845Z,0
2019-02-06T03:31:28.872Z,1.8
2019-02-06T03:32:29.140Z,3.9
2019-02-06T03:33:28.889Z,1.8
2019-02-06T03:34:28.816Z,1.8
2019-02-06T03:35:28.779Z,0
2019-02-06T03:36:41.093Z,0
2019-02-06T03:37:28.813Z,0
2019-02-06T03:38:28.876Z,0
2019-02-06T03:39:28.813Z,1.8
2019-02-06T03:40:29.198Z,1.8
2019-02-06T03:41:28.789Z,3.9
2019-02-06T03:42:28.814Z,6.6
2019-02-06T03:43:28.828Z,6.6
2019-02-06T03:44:28.829Z,6.6
2019-02-06T03:45:28.894Z,3.9
2019-02-06T03:46:28.789Z,3.9
2019-02-06T03:47:29.110Z,6.6
2019-02-06T03:48:28.880Z,3.9
2019-02-06T03:49:28.833Z,0
2019-02-06T03:50:28.870Z,0
2019-02-06T03:51:28.839Z,6.6
2019-02-06T03:52:28.825Z,6.6
2019-02-06T03:53:28.818Z,3.9
2019-02-06T03:54:28.806Z,0
2019-02-06T03:55:29.294Z,1.8
2019-02-06T03:56:28.801Z,6.6
2019-02-06T03:57:28.768Z,6.6
2019-02-06T03:58:29.011Z,3.9
2019-02-06T03:59:28.797Z,3.9
2019-02-06T04:00:28.816Z,3.9
2019-02-06T04:01:28.813Z,3.9
2019-02-06T04:02:28.783Z,1.8
2019-02-06T04:03:28.873Z,1.8
2019-02-06T04:04:28.873Z,6.6
2019-02-06T04:05:28.886Z,9.5
2019-02-06T04:06:28.800Z,6.6
2019-02-06T04:07:28.819Z,6.6
2019-02-06T04:08:28.758Z,6.6
2019-02-06T04:09:28.819Z,9.5
2019-02-06T04:10:29.283Z,12.4
2019-02-06T04:11:28.819Z,15.4
2019-02-06T04:12:28.840Z,12.4
2019-02-06T04:13:28.787Z,15.4
2019-02-06T04:14:28.798Z,12.4
2019-02-06T04:15:28.872Z,12.4
2019-02-06T04:16:28.806Z,15.4
2019-02-06T04:17:28.800Z,15.4
2019-02-06T04:18:29.250Z,12.4
2019-02-06T04:19:28.876Z,12.4
2019-02-06T04:20:28.802Z,9.5
2019-02-06T04:21:28.884Z,9.5
2019-02-06T04:22:28.801Z,12.4
2019-02-06T04:23:28.802Z,12.4
2019-02-06T04:24:28.835Z,12.4
2019-02-06T04:25:28.803Z,12.4
2019-02-06T04:26:28.801Z,9.5
2019-02-06T04:27:28.799Z,9.5
2019-02-06T04:28:28.788Z,9.5
2019-02-06T04:29:28.828Z,9.5
2019-02-06T04:30:28.800Z,9.5
2019-02-06T04:31:28.787Z,9.5
2019-02-06T04:32:28.791Z,9.5
2019-02-06T04:33:29.144Z,12.4
2019-02-06T04:34:28.967Z,6.6
2019-02-06T04:35:28.763Z,9.5
2019-02-06T04:36:28.786Z,12.4
2019-02-06T04:37:28.849Z,9.5
2019-02-06T04:38:28.804Z,6.6
2019-02-06T04:39:28.788Z,0
2019-02-06T04:40:28.835Z,9.5
2019-02-06T04:41:29.201Z,9.5
2019-02-06T04:42:28.810Z,9.5
2019-02-06T04:43:28.775Z,12.4
2019-02-06T04:44:28.783Z,12.4
2019-02-06T04:45:28.851Z,12.4
2019-02-06T04:46:28.785Z,12.4
2019-02-06T04:47:28.800Z,9.5
2019-02-06T04:48:31.906Z,15.4
2019-02-06T04:49:28.794Z,12.4
2019-02-06T04:50:28.848Z,15.4
2019-02-06T04:51:28.756Z,15.4
2019-02-06T04:52:28.785Z,12.4
2019-02-06T04:53:28.794Z,12.4
2019-02-06T04:54:28.892Z,12.4
2019-02-06T04:55:28.800Z,15.4
2019-02-06T04:56:29.202Z,15.4
2019-02-06T04:57:28.816Z,15.4
2019-02-06T04:58:28.775Z,15.4
2019-02-06T04:59:28.786Z,15.4
2019-02-06T05:00:28.777Z,12.4
2019-02-06T05:01:28.837Z,15.4
2019-02-06T05:02:28.750Z,15.4
2019-02-06T05:03:28.787Z,18.3
2019-02-06T05:04:28.778Z,15.4
2019-02-06T05:05:28.968Z,18.3
2019-02-06T05:06:29.033Z,18.3
2019-02-06T05:07:28.823Z,18.3
2019-02-06T05:08:28.748Z,18.3
2019-02-06T05:09:28.776Z,18.3
2019-02-06T05:10:28.775Z,21.3
2019-02-06T05:11:29.287Z,18.3
2019-02-06T05:12:28.859Z,18.3
2019-02-06T05:13:28.766Z,18.3
2019-02-06T05:14:28.777Z,12.4
2019-02-06T05:15:28.785Z,12.4
2019-02-06T05:16:28.759Z,9.5
2019-02-06T05:17:28.820Z,9.5
2019-02-06T05:18:28.782Z,9.5
2019-02-06T05:19:29.142Z,15.4
2019-02-06T05:20:28.780Z,12.4
2019-02-06T05:21:28.821Z,9.5
2019-02-06T05:22:28.772Z,9.5
2019-02-06T05:23:28.773Z,9.5
2019-02-06T05:24:28.814Z,9.5
2019-02-06T05:25:28.782Z,9.5
2019-02-06T05:26:28.990Z,6.6
2019-02-06T05:27:28.771Z,9.5
2019-02-06T05:28:28.830Z,3.9
2019-02-06T05:29:29.655Z,3.9
2019-02-06T05:30:28.816Z,3.9
2019-02-06T05:31:31.101Z,1.8
2019-02-06T05:32:28.774Z,3.9
2019-02-06T05:33:28.762Z,3.9
2019-02-06T05:34:29.253Z,1.8
2019-02-06T05:35:29.251Z,3.9
2019-02-06T05:36:28.775Z,3.9
2019-02-06T05:37:33.505Z,3.9
2019-02-06T05:38:28.770Z,3.9
2019-02-06T05:39:28.767Z,1.8
2019-02-06T05:40:28.803Z,3.9
2019-02-06T05:41:29.022Z,3.9
2019-02-06T05:42:28.759Z,3.9
2019-02-06T05:43:28.767Z,3.9
2019-02-06T05:44:28.795Z,3.9
2019-02-06T05:45:29.045Z,6.6
2019-02-06T05:46:28.731Z,6.6
2019-02-06T05:47:28.829Z,3.9
2019-02-06T05:48:28.758Z,3.9
2019-02-06T05:49:29.122Z,3.9
2019-02-06T05:50:28.767Z,1.8
2019-02-06T05:51:28.735Z,1.8
2019-02-06T05:52:28.862Z,0
2019-02-06T05:53:28.780Z,1.8
2019-02-06T05:54:28.805Z,3.9
2019-02-06T05:55:28.762Z,3.9
2019-02-06T05:56:29.142Z,6.6
2019-02-06T05:57:28.703Z,6.6
2019-02-06T05:58:28.750Z,3.9
2019-02-06T05:59:28.875Z,3.9
2019-02-06T06:00:28.759Z,9.5
2019-02-06T06:01:28.756Z,6.6
2019-02-06T06:02:28.722Z,3.9
2019-02-06T06:03:28.764Z,3.9
2019-02-06T06:04:29.076Z,3.9
2019-02-06T06:05:28.764Z,1.8
2019-02-06T06:06:30.833Z,0
2019-02-06T06:07:28.718Z,1.8
2019-02-06T06:08:28.792Z,1.8
2019-02-06T06:09:28.744Z,3.9
2019-02-06T06:10:28.744Z,1.8
2019-02-06T06:11:28.984Z,0
2019-02-06T06:12:28.749Z,0
2019-02-06T06:13:28.796Z,0
2019-02-06T06:14:28.745Z,1.8
2019-02-06T06:15:28.828Z,1.8
2019-02-06T06:16:28.737Z,3.9
2019-02-06T06:17:28.735Z,1.8
2019-02-06T06:18:28.804Z,0
2019-02-06T06:19:28.746Z,0
2019-02-06T06:20:28.743Z,0
2019-02-06T06:21:28.818Z,0
2019-02-06T06:22:28.731Z,0
2019-02-06T06:23:28.747Z,0
2019-02-06T06:24:28.700Z,3.9
2019-02-06T06:25:28.766Z,1.8
2019-02-06T06:26:29.205Z,0
2019-02-06T06:27:28.736Z,3.9
2019-02-06T06:28:28.779Z,3.9
2019-02-06T06:29:28.710Z,3.9
2019-02-06T06:30:28.799Z,1.8
2019-02-06T06:31:28.737Z,0
2019-02-06T06:32:31.653Z,0
2019-02-06T06:33:28.845Z,0
2019-02-06T06:34:28.748Z,0
2019-02-06T06:35:28.724Z,0
2019-02-06T06:36:28.751Z,0
2019-02-06T06:37:28.744Z,0
2019-02-06T06:38:28.837Z,0
2019-02-06T06:39:28.739Z,0
2019-02-06T06:40:28.701Z,0
2019-02-06T06:41:28.877Z,0
2019-02-06T06:42:28.732Z,0
2019-02-06T06:43:28.788Z,1.8
2019-02-06T06:44:28.735Z,0
2019-02-06T06:45:28.733Z,0
2019-02-06T06:46:28.768Z,6.6
2019-02-06T06:47:28.738Z,3.9
2019-02-06T06:48:28.723Z,6.6
2019-02-06T06:49:29.167Z,6.6
2019-02-06T06:50:28.779Z,0
2019-02-06T06:51:28.706Z,1.8
2019-02-06T06:52:28.734Z,1.8
2019-02-06T06:53:28.723Z,1.8
2019-02-06T06:54:28.751Z,3.9
2019-02-06T06:55:28.826Z,3.9
2019-02-06T06:56:28.703Z,3.9
2019-02-06T06:57:28.727Z,3.9
2019-02-06T06:58:28.721Z,1.8
2019-02-06T06:59:28.833Z,3.9
2019-02-06T07:00:28.775Z,1.8
2019-02-06T07:01:28.785Z,0
2019-02-06T07:02:28.688Z,0
2019-02-06T07:03:28.797Z,0
2019-02-06T07:04:29.244Z,0
2019-02-06T07:05:28.716Z,0
2019-02-06T07:06:29.420Z,0
2019-02-06T07:07:28.767Z,0
2019-02-06T07:08:28.720Z,0
2019-02-06T07:09:28.721Z,0
2019-02-06T07:10:28.787Z,0
2019-02-06T07:11:28.713Z,0
2019-02-06T07:12:29.124Z,0
2019-02-06T07:13:28.679Z,0
2019-02-06T07:14:28.754Z,0
2019-02-06T07:15:28.791Z,0
2019-02-06T07:16:28.720Z,0
2019-02-06T07:17:28.717Z,0
2019-02-06T07:18:28.690Z,0
2019-02-06T07:19:28.778Z,0
2019-02-06T07:20:28.772Z,0
2019-02-06T07:21:28.717Z,0
2019-02-06T07:22:28.726Z,0
2019-02-06T07:23:28.718Z,0
2019-02-06T07:24:28.676Z,0
2019-02-06T07:25:28.774Z,0
2019-02-06T07:26:28.806Z,0
2019-02-06T07:27:28.978Z,0
2019-02-06T07:28:28.711Z,0
2019-02-06T07:29:28.671Z,0
2019-02-06T07:30:28.690Z,0
2019-02-06T07:31:28.771Z,0
2019-02-06T07:32:28.709Z,0
2019-02-06T07:33:28.701Z,0
2019-02-06T07:34:28.714Z,0
2019-02-06T07:35:29.071Z,0
2019-02-06T07:36:28.772Z,0
2019-02-06T07:37:28.715Z,0
2019-02-06T07:38:28.714Z,0
2019-02-06T07:39:28.721Z,0
2019-02-06T07:40:28.663Z,0
2019-02-06T07:41:28.780Z,0
2019-02-06T07:42:29.084Z,0
2019-02-06T07:43:28.707Z,0
2019-02-06T07:44:28.707Z,0
2019-02-06T07:45:28.751Z,0
2019-02-06T07:46:28.666Z,0
2019-02-06T07:47:28.766Z,0
2019-02-06T07:48:28.707Z,0
2019-02-06T07:49:28.706Z,3.9
2019-02-06T07:50:29.280Z,6.6
2019-02-06T07:51:28.672Z,1.8
2019-02-06T07:52:28.708Z,0
2019-02-06T07:53:28.752Z,1.8
2019-02-06T07:54:28.771Z,0
2019-02-06T07:55:28.770Z,0
2019-02-06T07:56:28.676Z,0
2019-02-06T07:57:28.734Z,0
2019-02-06T07:58:28.695Z,0
2019-02-06T07:59:28.688Z,0
2019-02-06T08:00:28.692Z,0
2019-02-06T08:01:28.695Z,0
2019-02-06T08:02:28.749Z,0
2019-02-06T08:03:28.697Z,1.8
2019-02-06T08:04:28.704Z,0
2019-02-06T08:05:29.144Z,0
2019-02-06T08:06:28.699Z,0
2019-02-06T08:07:28.734Z,0
2019-02-06T08:08:37.514Z,6.6
2019-02-06T08:09:28.689Z,6.6
2019-02-06T08:10:28.698Z,6.6
2019-02-06T08:11:28.684Z,3.9
2019-02-06T08:12:28.688Z,3.9
2019-02-06T08:13:28.775Z,0
2019-02-06T08:14:28.686Z,0
2019-02-06T08:15:28.689Z,0
2019-02-06T08:16:28.691Z,0
2019-02-06T08:17:28.685Z,0
2019-02-06T08:18:28.734Z,0
2019-02-06T08:19:28.698Z,0
2019-02-06T08:20:29.131Z,0
2019-02-06T08:21:28.692Z,0
2019-02-06T08:22:28.681Z,0
2019-02-06T08:23:28.772Z,0
2019-02-06T08:24:28.658Z,0
2019-02-06T08:25:28.698Z,1.8
2019-02-06T08:26:28.679Z,0
2019-02-06T08:27:28.732Z,0
2019-02-06T08:28:28.925Z,0
2019-02-06T08:29:28.768Z,0
2019-02-06T08:30:28.683Z,0
2019-02-06T08:31:28.670Z,0
2019-02-06T08:32:28.669Z,0
2019-02-06T08:33:38.627Z,0
2019-02-06T08:34:28.684Z,1.8
2019-02-06T08:35:28.651Z,0
2019-02-06T08:36:29.101Z,0
2019-02-06T08:37:28.676Z,0
2019-02-06T08:38:28.755Z,0
2019-02-06T08:39:28.668Z,0
2019-02-06T08:40:28.656Z,0
2019-02-06T08:41:28.666Z,0
2019-02-06T08:42:28.667Z,0
2019-02-06T08:43:28.736Z,0
2019-02-06T08:44:28.728Z,0
2019-02-06T08:45:28.653Z,0
2019-02-06T08:46:28.649Z,0
2019-02-06T08:47:28.680Z,0
2019-02-06T08:48:28.674Z,0
2019-02-06T08:49:28.747Z,0
2019-02-06T08:50:28.672Z,0
2019-02-06T08:51:29.059Z,0
2019-02-06T08:52:28.670Z,0
2019-02-06T08:53:28.796Z,0
2019-02-06T08:54:28.743Z,0
2019-02-06T08:55:28.662Z,0
2019-02-06T08:56:28.707Z,0
2019-02-06T08:57:28.665Z,0
2019-02-06T08:58:28.779Z,0
2019-02-06T08:59:28.680Z,0
2019-02-06T09:00:28.748Z,1.8
2019-02-06T09:01:28.663Z,6.6
2019-02-06T09:02:28.851Z,6.6
2019-02-06T09:03:28.736Z,6.6
2019-02-06T09:04:28.672Z,3.9
2019-02-06T09:05:28.669Z,3.9
2019-02-06T09:06:28.898Z,0
2019-02-06T09:07:28.723Z,0
2019-02-06T09:08:28.650Z,0
2019-02-06T09:09:28.669Z,0
2019-02-06T09:10:28.687Z,1.8
2019-02-06T09:11:28.678Z,0
2019-02-06T09:12:28.735Z,0
2019-02-06T09:13:28.641Z,6.6
2019-02-06T09:14:28.999Z,6.6
2019-02-06T09:15:29.009Z,3.9
2019-02-06T09:16:28.661Z,3.9
2019-02-06T09:17:28.671Z,6.6
2019-02-06T09:18:28.665Z,6.6
2019-02-06T09:19:28.724Z,6.6
2019-02-06T09:20:28.676Z,6.6
2019-02-06T09:21:28.665Z,0
2019-02-06T09:22:28.667Z,9.5
2019-02-06T09:23:28.668Z,9.5
2019-02-06T09:24:28.808Z,6.6
2019-02-06T09:25:28.732Z,3.9
2019-02-06T09:26:28.669Z,9.5
2019-02-06T09:27:28.667Z,21.3
2019-02-06T09:28:28.677Z,24.3
2019-02-06T09:29:29.108Z,21.3
2019-02-06T09:30:28.678Z,24.3
2019-02-06T09:31:28.659Z,9.5
2019-02-06T09:32:28.682Z,18.3
2019-02-06T09:33:28.660Z,15.4
2019-02-06T09:34:28.705Z,21.3
2019-02-06T09:35:28.707Z,9.5
2019-02-06T09:36:28.661Z,12.4
2019-02-06T09:37:28.664Z,15.4
2019-02-06T09:38:28.661Z,9.5
2019-02-06T09:39:28.757Z,15.4
2019-02-06T09:40:28.638Z,15.4
2019-02-06T09:41:28.672Z,24.3
2019-02-06T09:42:28.672Z,18.3
2019-02-06T09:43:28.832Z,21.3
2019-02-06T09:44:28.997Z,30.3
2019-02-06T09:45:28.650Z,18.3
2019-02-06T09:46:28.632Z,12.4
2019-02-06T09:47:28.653Z,24.3
2019-02-06T09:48:28.724Z,6.6
2019-02-06T09:49:28.672Z,21.3
2019-02-06T09:50:28.655Z,12.4
2019-02-06T09:51:28.631Z,12.4
2019-02-06T09:52:30.411Z,9.5
2019-02-06T09:53:28.664Z,6.6
2019-02-06T09:54:28.681Z,12.4
2019-02-06T09:55:28.719Z,24.3
2019-02-06T09:56:28.710Z,24.3
2019-02-06T09:57:28.636Z,6.6
2019-02-06T09:58:28.765Z,6.6
2019-02-06T09:59:29.087Z,12.4
2019-02-06T10:00:28.665Z,15.4
2019-02-06T10:01:28.664Z,15.4
2019-02-06T10:02:28.628Z,12.4
2019-02-06T10:03:28.727Z,15.4
2019-02-06T10:04:28.699Z,12.4
2019-02-06T10:05:28.725Z,9.5
2019-02-06T10:06:28.669Z,9.5
2019-02-06T10:07:28.870Z,9.5
2019-02-06T10:08:28.728Z,9.5
2019-02-06T10:09:28.680Z,6.6
2019-02-06T10:10:28.748Z,6.6
2019-02-06T10:11:28.679Z,6.6
2019-02-06T10:12:28.667Z,3.9
2019-02-06T10:13:28.696Z,6.6
2019-02-06T10:14:28.805Z,3.9
2019-02-06T10:15:28.663Z,3.9
2019-02-06T10:16:28.740Z,3.9
2019-02-06T10:17:28.672Z,0
2019-02-06T10:18:28.664Z,1.8
2019-02-06T10:19:28.665Z,6.6
2019-02-06T10:20:28.803Z,6.6
2019-02-06T10:21:28.787Z,1.8
2019-02-06T10:22:28.905Z,3.9
2019-02-06T10:23:28.679Z,3.9
2019-02-06T10:24:28.703Z,6.6
2019-02-06T10:25:28.671Z,6.6
2019-02-06T10:26:28.727Z,6.6
2019-02-06T10:27:28.672Z,6.6
2019-02-06T10:28:28.668Z,6.6
2019-02-06T10:29:28.621Z,6.6
2019-02-06T10:30:29.034Z,3.9
2019-02-06T10:31:28.674Z,1.8
2019-02-06T10:32:28.662Z,0
2019-02-06T10:33:28.648Z,0
2019-02-06T10:34:28.689Z,0
2019-02-06T10:35:28.663Z,0
2019-02-06T10:36:28.660Z,0
2019-02-06T10:37:30.472Z,3.9
2019-02-06T10:38:28.728Z,3.9
2019-02-06T10:39:35.834Z,3.9
2019-02-06T10:40:28.642Z,6.6
2019-02-06T10:41:28.659Z,6.6
2019-02-06T10:42:28.710Z,3.9
2019-02-06T10:43:35.784Z,6.6
2019-02-06T10:44:28.780Z,6.6
2019-02-06T10:45:28.943Z,1.8
2019-02-06T10:46:28.738Z,12.4
2019-02-06T10:47:28.652Z,15.4
2019-02-06T10:48:28.734Z,15.4
2019-02-06T10:49:28.656Z,9.5
2019-02-06T10:50:28.709Z,9.5
2019-02-06T10:51:28.633Z,3.9
2019-02-06T10:52:28.661Z,0
2019-02-06T10:53:28.725Z,0
2019-02-06T10:54:28.660Z,0
2019-02-06T10:55:28.656Z,3.9
2019-02-06T10:56:28.639Z,3.9
2019-02-06T10:57:28.663Z,3.9
2019-02-06T10:58:28.742Z,3.9
2019-02-06T10:59:28.663Z,1.8
2019-02-06T11:00:31.151Z,0
2019-02-06T11:01:28.873Z,0
2019-02-06T11:02:28.625Z,6.6
2019-02-06T11:03:28.673Z,3.9
2019-02-06T11:04:28.660Z,1.8
2019-02-06T11:05:28.716Z,0
2019-02-06T11:06:28.662Z,3.9
2019-02-06T11:07:28.643Z,3.9
2019-02-06T11:08:29.070Z,6.6
2019-02-06T11:09:28.658Z,9.5
2019-02-06T11:10:28.660Z,9.5
2019-02-06T11:11:28.672Z,6.6
2019-02-06T11:12:28.691Z,6.6
2019-02-06T11:13:28.697Z,15.4
2019-02-06T11:14:28.676Z,12.4
2019-02-06T11:15:29.090Z,12.4
2019-02-06T11:16:28.742Z,9.5
2019-02-06T11:17:28.659Z,9.5
2019-02-06T11:18:28.703Z,9.5
2019-02-06T11:19:28.652Z,3.9
2019-02-06T11:20:28.663Z,0
2019-02-06T11:21:28.720Z,6.6
2019-02-06T11:22:28.647Z,9.5
2019-02-06T11:23:29.052Z,9.5
2019-02-06T11:24:28.624Z,12.4
2019-02-06T11:25:28.713Z,9.5
2019-02-06T11:26:28.727Z,9.5
2019-02-06T11:27:28.653Z,12.4
2019-02-06T11:28:28.647Z,9.5
2019-02-06T11:29:28.620Z,9.5
2019-02-06T11:30:28.650Z,12.4
2019-02-06T11:31:29.148Z,6.6
2019-02-06T11:32:28.649Z,3.9
2019-02-06T11:33:28.642Z,0
2019-02-06T11:34:28.628Z,0
2019-02-06T11:35:28.649Z,1.8
2019-02-06T11:36:28.711Z,3.9
2019-02-06T11:37:28.645Z,6.6
2019-02-06T11:38:29.365Z,6.6
2019-02-06T11:39:28.638Z,9.5
2019-02-06T11:40:28.617Z,6.6
2019-02-06T11:41:28.716Z,3.9
2019-02-06T11:42:28.672Z,6.6
2019-02-06T11:43:28.644Z,3.9
2019-02-06T11:44:28.658Z,9.5
2019-02-06T11:45:28.622Z,6.6
2019-02-06T11:46:28.866Z,9.5
2019-02-06T11:47:28.720Z,9.5
2019-02-06T11:48:28.712Z,12.4
2019-02-06T11:49:28.656Z,9.5
2019-02-06T11:50:28.648Z,9.5
2019-02-06T11:51:28.671Z,6.6
2019-02-06T11:52:28.656Z,3.9
2019-02-06T11:53:28.704Z,9.5
2019-02-06T11:54:28.928Z,12.4
2019-02-06T11:55:28.709Z,12.4
2019-02-06T11:56:28.615Z,15.4
2019-02-06T11:57:28.619Z,15.4
2019-02-06T11:58:28.720Z,18.3
2019-02-06T11:59:28.644Z,9.5
2019-02-06T12:00:28.699Z,12.4
2019-02-06T12:01:28.682Z,9.5
2019-02-06T12:02:38.490Z,9.5
2019-02-06T12:03:28.648Z,15.4
2019-02-06T12:04:28.697Z,6.6
2019-02-06T12:05:28.646Z,3.9
2019-02-06T12:06:28.714Z,6.6
2019-02-06T12:07:28.605Z,6.6
2019-02-06T12:08:31.093Z,6.6
2019-02-06T12:09:28.992Z,6.6
2019-02-06T12:10:28.654Z,6.6
2019-02-06T12:11:28.765Z,3.9
2019-02-06T12:12:28.619Z,3.9
2019-02-06T12:13:28.687Z,6.6
2019-02-06T12:14:28.620Z,6.6
2019-02-06T12:15:28.666Z,3.9
2019-02-06T12:16:28.786Z,3.9
2019-02-06T12:17:28.641Z,12.4
2019-02-06T12:18:28.673Z,12.4
2019-02-06T12:19:28.657Z,15.4
2019-02-06T12:20:28.699Z,15.4
2019-02-06T12:21:28.661Z,12.4
2019-02-06T12:22:28.658Z,18.3
2019-02-06T12:23:33.762Z,15.4
2019-02-06T12:24:28.956Z,12.4
2019-02-06T12:25:28.651Z,18.3
2019-02-06T12:26:28.714Z,21.3
2019-02-06T12:27:28.647Z,12.4
2019-02-06T12:28:28.636Z,27.3
2019-02-06T12:29:28.609Z,24.3
2019-02-06T12:30:28.704Z,21.3
2019-02-06T12:31:28.654Z,18.3
2019-02-06T12:32:28.642Z,15.4
2019-02-06T12:33:28.717Z,6.6
2019-02-06T12:34:28.621Z,9.5
2019-02-06T12:35:28.606Z,21.3
2019-02-06T12:36:28.642Z,18.3
2019-02-06T12:37:38.588Z,21.3
2019-02-06T12:38:28.630Z,21.3
2019-02-06T12:39:29.054Z,21.3
2019-02-06T12:40:28.777Z,15.4
2019-02-06T12:41:28.638Z,12.4
2019-02-06T12:42:28.646Z,9.5
2019-02-06T12:43:28.649Z,6.6
2019-02-06T12:44:28.638Z,1.8
2019-02-06T12:45:29.045Z,9.5
2019-02-06T12:46:28.644Z,9.5
2019-02-06T12:47:28.645Z,15.4
2019-02-06T12:48:28.640Z,15.4
2019-02-06T12:49:28.714Z,12.4
2019-02-06T12:50:28.661Z,15.4
2019-02-06T12:51:28.610Z,9.5
2019-02-06T12:52:28.657Z,12.4
2019-02-06T12:53:30.506Z,12.4
2019-02-06T12:54:28.685Z,9.5
2019-02-06T12:55:28.645Z,3.9
2019-02-06T12:56:28.689Z,12.4
2019-02-06T12:57:38.267Z,18.3
2019-02-06T12:58:28.650Z,15.4
2019-02-06T12:59:28.646Z,21.3
2019-02-06T13:00:29.076Z,21.3
2019-02-06T13:01:28.700Z,15.4
2019-02-06T13:02:28.659Z,18.3
2019-02-06T13:03:28.627Z,15.4
2019-02-06T13:04:28.644Z,15.4
2019-02-06T13:05:28.714Z,12.4
2019-02-06T13:06:30.820Z,15.4
2019-02-06T13:07:28.669Z,15.4
2019-02-06T13:08:29.062Z,15.4
2019-02-06T13:09:28.644Z,21.3
2019-02-06T13:10:35.439Z,18.3
2019-02-06T13:11:28.710Z,18.3
2019-02-06T13:12:28.650Z,24.3
2019-02-06T13:13:28.647Z,33.3
2019-02-06T13:14:28.725Z,27.3
2019-02-06T13:15:28.963Z,30.3
2019-02-06T13:16:28.636Z,24.3
2019-02-06T13:17:28.711Z,30.3
2019-02-06T13:18:28.683Z,30.3
2019-02-06T13:19:28.635Z,15.4
2019-02-06T13:20:28.653Z,24.3
2019-02-06T13:21:28.712Z,21.3
2019-02-06T13:22:28.622Z,12.4
2019-02-06T13:23:29.045Z,18.3
2019-02-06T13:24:28.594Z,21.3
2019-02-06T13:25:28.645Z,24.3
2019-02-06T13:26:28.633Z,18.3
2019-02-06T13:27:28.706Z,21.3
2019-02-06T13:28:28.633Z,18.3
2019-02-06T13:29:28.667Z,18.3
2019-02-06T13:30:28.622Z,12.4
2019-02-06T13:31:29.019Z,15.4
2019-02-06T13:32:28.688Z,15.4
2019-02-06T13:33:28.628Z,12.4
2019-02-06T13:34:28.621Z,24.3
2019-02-06T13:35:28.695Z,18.3
2019-02-06T13:36:28.638Z,18.3
2019-02-06T13:37:28.624Z,21.3
2019-02-06T13:38:28.838Z,24.3
2019-02-06T13:39:28.626Z,15.4
2019-02-06T13:40:28.675Z,12.4
2019-02-06T13:41:28.638Z,15.4
2019-02-06T13:42:28.633Z,18.3
2019-02-06T13:43:28.631Z,21.3
2019-02-06T13:44:28.679Z,15.4
2019-02-06T13:45:28.597Z,27.3
2019-02-06T13:46:29.096Z,12.4
2019-02-06T13:47:28.698Z,15.4
2019-02-06T13:48:28.613Z,30.3
2019-02-06T13:49:28.704Z,18.3
2019-02-06T13:50:28.613Z,21.3
2019-02-06T13:51:28.657Z,27.3
2019-02-06T13:52:28.612Z,30.3
2019-02-06T13:53:28.603Z,18.3
2019-02-06T13:54:28.960Z,21.3